sensor_id;sensor_type;location;lat;lon;timestamp;temperature;humidity
41720;DHT22;27405;53.316;-6.294;2022-08-24T00:01:03;19.00;80.90
41720;DHT22;27405;53.316;-6.294;2022-08-24T00:03:31;18.90;81.10
41720;DHT22;27405;53.316;-6.294;2022-08-24T00:05:57;18.90;81.10
41720;DHT22;27405;53.316;-6.294;2022-08-24T00:11:45;18.70;81.70
41720;DHT22;27405;53.316;-6.294;2022-08-24T00:14:12;18.70;81.80
41720;DHT22;27405;53.316;-6.294;2022-08-24T00:16:38;18.70;82.40
41720;DHT22;27405;53.316;-6.294;2022-08-24T00:19:04;18.60;82.80
41720;DHT22;27405;53.316;-6.294;2022-08-24T00:21:30;18.60;83.10
41720;DHT22;27405;53.316;-6.294;2022-08-24T00:23:56;18.60;83.30
41720;DHT22;27405;53.316;-6.294;2022-08-24T00:26:22;18.60;83.50
41720;DHT22;27405;53.316;-6.294;2022-08-24T00:28:48;18.50;83.60
41720;DHT22;27405;53.316;-6.294;2022-08-24T00:31:14;18.50;83.80
41720;DHT22;27405;53.316;-6.294;2022-08-24T00:33:40;18.50;84.10
41720;DHT22;27405;53.316;-6.294;2022-08-24T00:36:07;18.40;84.10
41720;DHT22;27405;53.316;-6.294;2022-08-24T00:38:33;18.40;84.40
41720;DHT22;27405;53.316;-6.294;2022-08-24T00:41:00;18.40;84.40
41720;DHT22;27405;53.316;-6.294;2022-08-24T00:43:27;18.30;84.40
41720;DHT22;27405;53.316;-6.294;2022-08-24T00:48:39;18.20;84.80
41720;DHT22;27405;53.316;-6.294;2022-08-24T00:51:13;18.10;85.10
41720;DHT22;27405;53.316;-6.294;2022-08-24T00:54:09;18.20;85.30
41720;DHT22;27405;53.316;-6.294;2022-08-24T00:56:52;18.10;85.20
41720;DHT22;27405;53.316;-6.294;2022-08-24T00:59:28;18.10;85.30
41720;DHT22;27405;53.316;-6.294;2022-08-24T01:01:56;18.10;85.20
41720;DHT22;27405;53.316;-6.294;2022-08-24T01:07:45;17.90;85.30
41720;DHT22;27405;53.316;-6.294;2022-08-24T01:10:19;17.90;85.30
41720;DHT22;27405;53.316;-6.294;2022-08-24T01:12:49;17.80;85.80
41720;DHT22;27405;53.316;-6.294;2022-08-24T01:15:17;17.70;86.20
41720;DHT22;27405;53.316;-6.294;2022-08-24T01:17:45;17.60;86.40
41720;DHT22;27405;53.316;-6.294;2022-08-24T01:20:30;17.60;86.80
41720;DHT22;27405;53.316;-6.294;2022-08-24T01:26:00;17.50;87.10
41720;DHT22;27405;53.316;-6.294;2022-08-24T01:28:27;17.50;87.20
41720;DHT22;27405;53.316;-6.294;2022-08-24T01:30:55;17.50;87.50
41720;DHT22;27405;53.316;-6.294;2022-08-24T01:33:27;17.40;87.60
41720;DHT22;27405;53.316;-6.294;2022-08-24T01:35:57;17.40;88.10
41720;DHT22;27405;53.316;-6.294;2022-08-24T01:38:25;17.40;88.20
41720;DHT22;27405;53.316;-6.294;2022-08-24T01:40:57;17.40;88.20
41720;DHT22;27405;53.316;-6.294;2022-08-24T01:43:24;17.30;88.50
41720;DHT22;27405;53.316;-6.294;2022-08-24T01:45:50;17.30;88.60
41720;DHT22;27405;53.316;-6.294;2022-08-24T01:48:16;17.30;88.70
41720;DHT22;27405;53.316;-6.294;2022-08-24T01:50:44;17.30;88.70
41720;DHT22;27405;53.316;-6.294;2022-08-24T01:53:10;17.30;88.30
41720;DHT22;27405;53.316;-6.294;2022-08-24T01:55:37;17.20;87.80
41720;DHT22;27405;53.316;-6.294;2022-08-24T01:58:04;17.10;87.30
41720;DHT22;27405;53.316;-6.294;2022-08-24T02:00:31;16.90;87.10
41720;DHT22;27405;53.316;-6.294;2022-08-24T02:02:58;16.80;87.10
41720;DHT22;27405;53.316;-6.294;2022-08-24T02:05:24;16.70;87.30
41720;DHT22;27405;53.316;-6.294;2022-08-24T02:07:51;16.70;87.30
41720;DHT22;27405;53.316;-6.294;2022-08-24T02:10:18;16.60;87.40
41720;DHT22;27405;53.316;-6.294;2022-08-24T02:12:46;16.50;87.40
41720;DHT22;27405;53.316;-6.294;2022-08-24T02:15:28;16.50;87.60
41720;DHT22;27405;53.316;-6.294;2022-08-24T02:17:55;16.40;87.70
41720;DHT22;27405;53.316;-6.294;2022-08-24T02:20:22;16.40;87.80
41720;DHT22;27405;53.316;-6.294;2022-08-24T02:22:49;16.40;88.00
41720;DHT22;27405;53.316;-6.294;2022-08-24T02:25:16;16.40;88.10
41720;DHT22;27405;53.316;-6.294;2022-08-24T02:27:43;16.40;87.90
41720;DHT22;27405;53.316;-6.294;2022-08-24T02:30:10;16.40;87.70
41720;DHT22;27405;53.316;-6.294;2022-08-24T02:32:36;16.40;87.70
41720;DHT22;27405;53.316;-6.294;2022-08-24T02:35:02;16.30;87.60
41720;DHT22;27405;53.316;-6.294;2022-08-24T02:37:28;16.30;87.70
41720;DHT22;27405;53.316;-6.294;2022-08-24T02:39:54;16.20;87.80
41720;DHT22;27405;53.316;-6.294;2022-08-24T02:45:44;16.20;88.50
41720;DHT22;27405;53.316;-6.294;2022-08-24T02:48:11;16.20;88.30
41720;DHT22;27405;53.316;-6.294;2022-08-24T02:50:39;16.20;88.30
41720;DHT22;27405;53.316;-6.294;2022-08-24T02:53:06;16.20;88.30
41720;DHT22;27405;53.316;-6.294;2022-08-24T02:55:32;16.10;88.30
41720;DHT22;27405;53.316;-6.294;2022-08-24T02:57:58;16.20;88.30
41720;DHT22;27405;53.316;-6.294;2022-08-24T03:00:24;16.20;88.30
41720;DHT22;27405;53.316;-6.294;2022-08-24T03:02:51;16.20;88.30
41720;DHT22;27405;53.316;-6.294;2022-08-24T03:05:18;16.20;88.30
41720;DHT22;27405;53.316;-6.294;2022-08-24T03:07:44;16.20;88.40
41720;DHT22;27405;53.316;-6.294;2022-08-24T03:10:11;16.20;88.30
41720;DHT22;27405;53.316;-6.294;2022-08-24T03:12:37;16.20;88.30
41720;DHT22;27405;53.316;-6.294;2022-08-24T03:15:06;16.20;88.30
41720;DHT22;27405;53.316;-6.294;2022-08-24T03:17:32;16.20;88.20
41720;DHT22;27405;53.316;-6.294;2022-08-24T03:19:59;16.20;88.10
41720;DHT22;27405;53.316;-6.294;2022-08-24T03:22:25;16.20;88.00
41720;DHT22;27405;53.316;-6.294;2022-08-24T03:24:52;16.20;87.90
41720;DHT22;27405;53.316;-6.294;2022-08-24T03:27:18;16.10;88.00
41720;DHT22;27405;53.316;-6.294;2022-08-24T03:29:44;16.10;88.00
41720;DHT22;27405;53.316;-6.294;2022-08-24T03:32:10;16.10;88.00
41720;DHT22;27405;53.316;-6.294;2022-08-24T03:34:36;16.10;88.00
41720;DHT22;27405;53.316;-6.294;2022-08-24T03:37:03;16.10;88.00
41720;DHT22;27405;53.316;-6.294;2022-08-24T03:39:29;16.00;87.80
41720;DHT22;27405;53.316;-6.294;2022-08-24T03:41:55;16.00;87.70
41720;DHT22;27405;53.316;-6.294;2022-08-24T03:44:21;15.90;87.80
41720;DHT22;27405;53.316;-6.294;2022-08-24T03:46:50;16.00;88.00
41720;DHT22;27405;53.316;-6.294;2022-08-24T03:49:16;16.00;88.00
41720;DHT22;27405;53.316;-6.294;2022-08-24T03:51:42;16.00;88.00
41720;DHT22;27405;53.316;-6.294;2022-08-24T03:54:10;16.00;87.90
41720;DHT22;27405;53.316;-6.294;2022-08-24T03:56:37;15.90;87.90
41720;DHT22;27405;53.316;-6.294;2022-08-24T03:59:04;16.00;88.00
41720;DHT22;27405;53.316;-6.294;2022-08-24T04:01:32;15.90;87.80
41720;DHT22;27405;53.316;-6.294;2022-08-24T04:03:59;15.90;87.90
41720;DHT22;27405;53.316;-6.294;2022-08-24T04:06:25;15.80;88.10
41720;DHT22;27405;53.316;-6.294;2022-08-24T04:08:51;15.80;88.10
41720;DHT22;27405;53.316;-6.294;2022-08-24T04:11:25;15.80;88.10
41720;DHT22;27405;53.316;-6.294;2022-08-24T04:13:53;15.80;88.10
41720;DHT22;27405;53.316;-6.294;2022-08-24T04:16:21;15.80;88.10
41720;DHT22;27405;53.316;-6.294;2022-08-24T04:18:48;15.80;88.10
41720;DHT22;27405;53.316;-6.294;2022-08-24T04:21:20;15.80;88.00
41720;DHT22;27405;53.316;-6.294;2022-08-24T04:23:48;15.70;88.00
41720;DHT22;27405;53.316;-6.294;2022-08-24T04:26:15;15.80;88.00
41720;DHT22;27405;53.316;-6.294;2022-08-24T04:28:42;15.80;88.10
41720;DHT22;27405;53.316;-6.294;2022-08-24T04:31:08;15.70;88.10
41720;DHT22;27405;53.316;-6.294;2022-08-24T04:33:34;15.70;88.20
41720;DHT22;27405;53.316;-6.294;2022-08-24T04:36:00;15.70;88.20
41720;DHT22;27405;53.316;-6.294;2022-08-24T04:38:27;15.70;88.20
41720;DHT22;27405;53.316;-6.294;2022-08-24T04:40:54;15.70;88.30
41720;DHT22;27405;53.316;-6.294;2022-08-24T04:43:20;15.70;88.30
41720;DHT22;27405;53.316;-6.294;2022-08-24T04:45:47;15.70;88.90
41720;DHT22;27405;53.316;-6.294;2022-08-24T04:48:15;15.70;88.20
41720;DHT22;27405;53.316;-6.294;2022-08-24T04:50:42;15.70;88.10
41720;DHT22;27405;53.316;-6.294;2022-08-24T04:53:09;15.70;88.20
41720;DHT22;27405;53.316;-6.294;2022-08-24T04:55:41;15.70;88.20
41720;DHT22;27405;53.316;-6.294;2022-08-24T04:58:08;15.70;87.90
41720;DHT22;27405;53.316;-6.294;2022-08-24T05:00:34;15.70;88.00
41720;DHT22;27405;53.316;-6.294;2022-08-24T05:03:00;15.60;88.10
41720;DHT22;27405;53.316;-6.294;2022-08-24T05:05:26;15.60;88.10
41720;DHT22;27405;53.316;-6.294;2022-08-24T05:07:52;15.60;88.10
41720;DHT22;27405;53.316;-6.294;2022-08-24T05:10:19;15.60;88.20
41720;DHT22;27405;53.316;-6.294;2022-08-24T05:12:47;15.60;88.20
41720;DHT22;27405;53.316;-6.294;2022-08-24T05:15:13;15.60;88.30
41720;DHT22;27405;53.316;-6.294;2022-08-24T05:17:39;15.60;88.30
41720;DHT22;27405;53.316;-6.294;2022-08-24T05:20:08;15.60;88.40
41720;DHT22;27405;53.316;-6.294;2022-08-24T05:22:34;15.60;88.50
41720;DHT22;27405;53.316;-6.294;2022-08-24T05:25:00;15.60;88.50
41720;DHT22;27405;53.316;-6.294;2022-08-24T05:27:27;15.60;88.40
41720;DHT22;27405;53.316;-6.294;2022-08-24T05:29:53;15.60;88.40
41720;DHT22;27405;53.316;-6.294;2022-08-24T05:32:20;15.60;88.40
41720;DHT22;27405;53.316;-6.294;2022-08-24T05:34:46;15.60;88.40
41720;DHT22;27405;53.316;-6.294;2022-08-24T05:37:12;15.60;88.40
41720;DHT22;27405;53.316;-6.294;2022-08-24T05:39:38;15.70;88.40
41720;DHT22;27405;53.316;-6.294;2022-08-24T05:42:05;15.70;88.30
41720;DHT22;27405;53.316;-6.294;2022-08-24T05:44:31;15.70;88.20
41720;DHT22;27405;53.316;-6.294;2022-08-24T05:46:57;15.70;88.10
41720;DHT22;27405;53.316;-6.294;2022-08-24T05:49:24;15.70;88.10
41720;DHT22;27405;53.316;-6.294;2022-08-24T05:51:51;15.70;88.10
41720;DHT22;27405;53.316;-6.294;2022-08-24T05:54:17;15.70;88.20
41720;DHT22;27405;53.316;-6.294;2022-08-24T05:56:43;15.80;88.20
41720;DHT22;27405;53.316;-6.294;2022-08-24T05:59:10;15.80;88.00
41720;DHT22;27405;53.316;-6.294;2022-08-24T06:01:37;15.80;87.90
41720;DHT22;27405;53.316;-6.294;2022-08-24T06:04:04;15.80;87.70
41720;DHT22;27405;53.316;-6.294;2022-08-24T06:06:30;15.80;87.70
41720;DHT22;27405;53.316;-6.294;2022-08-24T06:08:59;15.80;87.70
41720;DHT22;27405;53.316;-6.294;2022-08-24T06:11:36;15.80;87.80
41720;DHT22;27405;53.316;-6.294;2022-08-24T06:14:08;15.80;87.70
41720;DHT22;27405;53.316;-6.294;2022-08-24T06:16:36;15.90;87.80
41720;DHT22;27405;53.316;-6.294;2022-08-24T06:19:03;15.90;87.70
41720;DHT22;27405;53.316;-6.294;2022-08-24T06:21:30;15.90;87.60
41720;DHT22;27405;53.316;-6.294;2022-08-24T06:23:57;15.90;87.50
41720;DHT22;27405;53.316;-6.294;2022-08-24T06:26:24;15.90;87.60
41720;DHT22;27405;53.316;-6.294;2022-08-24T06:29:09;15.90;87.60
41720;DHT22;27405;53.316;-6.294;2022-08-24T06:31:38;15.90;87.50
41720;DHT22;27405;53.316;-6.294;2022-08-24T06:34:10;16.00;87.50
41720;DHT22;27405;53.316;-6.294;2022-08-24T06:36:36;16.00;87.90
41720;DHT22;27405;53.316;-6.294;2022-08-24T06:39:02;16.00;87.10
41720;DHT22;27405;53.316;-6.294;2022-08-24T06:41:28;16.00;87.10
41720;DHT22;27405;53.316;-6.294;2022-08-24T06:43:54;16.10;87.20
41720;DHT22;27405;53.316;-6.294;2022-08-24T06:46:20;16.10;87.00
41720;DHT22;27405;53.316;-6.294;2022-08-24T06:48:47;16.20;86.70
41720;DHT22;27405;53.316;-6.294;2022-08-24T06:51:16;16.20;86.40
41720;DHT22;27405;53.316;-6.294;2022-08-24T06:53:42;16.20;87.00
41720;DHT22;27405;53.316;-6.294;2022-08-24T06:56:08;16.30;86.20
41720;DHT22;27405;53.316;-6.294;2022-08-24T06:58:35;16.30;86.00
41720;DHT22;27405;53.316;-6.294;2022-08-24T07:01:14;16.30;86.50
41720;DHT22;27405;53.316;-6.294;2022-08-24T07:03:41;16.40;85.70
41720;DHT22;27405;53.316;-6.294;2022-08-24T07:06:07;16.40;85.50
41720;DHT22;27405;53.316;-6.294;2022-08-24T07:08:34;16.40;85.40
41720;DHT22;27405;53.316;-6.294;2022-08-24T07:11:00;16.40;85.40
41720;DHT22;27405;53.316;-6.294;2022-08-24T07:13:27;16.40;85.30
41720;DHT22;27405;53.316;-6.294;2022-08-24T07:15:56;16.50;85.10
41720;DHT22;27405;53.316;-6.294;2022-08-24T07:18:22;16.50;84.90
41720;DHT22;27405;53.316;-6.294;2022-08-24T07:20:48;16.50;84.70
41720;DHT22;27405;53.316;-6.294;2022-08-24T07:23:15;16.60;84.70
41720;DHT22;27405;53.316;-6.294;2022-08-24T07:25:44;16.60;84.60
41720;DHT22;27405;53.316;-6.294;2022-08-24T07:28:11;16.60;84.30
41720;DHT22;27405;53.316;-6.294;2022-08-24T07:30:37;16.70;84.10
41720;DHT22;27405;53.316;-6.294;2022-08-24T07:33:04;16.70;84.00
41720;DHT22;27405;53.316;-6.294;2022-08-24T07:35:31;16.70;83.90
41720;DHT22;27405;53.316;-6.294;2022-08-24T07:37:58;16.70;83.70
41720;DHT22;27405;53.316;-6.294;2022-08-24T07:40:25;16.80;83.70
41720;DHT22;27405;53.316;-6.294;2022-08-24T07:42:53;16.90;83.70
41720;DHT22;27405;53.316;-6.294;2022-08-24T07:45:21;17.00;83.50
41720;DHT22;27405;53.316;-6.294;2022-08-24T07:47:48;17.10;83.20
41720;DHT22;27405;53.316;-6.294;2022-08-24T07:50:15;17.20;82.80
41720;DHT22;27405;53.316;-6.294;2022-08-24T07:52:42;17.30;82.30
41720;DHT22;27405;53.316;-6.294;2022-08-24T07:55:10;17.30;81.90
41720;DHT22;27405;53.316;-6.294;2022-08-24T07:57:37;17.40;81.50
41720;DHT22;27405;53.316;-6.294;2022-08-24T08:00:06;17.40;81.40
41720;DHT22;27405;53.316;-6.294;2022-08-24T08:02:33;17.40;81.20
41720;DHT22;27405;53.316;-6.294;2022-08-24T08:04:59;17.50;80.80
41720;DHT22;27405;53.316;-6.294;2022-08-24T08:07:25;17.50;80.40
41720;DHT22;27405;53.316;-6.294;2022-08-24T08:09:51;17.50;80.00
41720;DHT22;27405;53.316;-6.294;2022-08-24T08:12:17;17.60;79.60
41720;DHT22;27405;53.316;-6.294;2022-08-24T08:14:45;17.60;79.10
41720;DHT22;27405;53.316;-6.294;2022-08-24T08:17:11;17.60;78.60
41720;DHT22;27405;53.316;-6.294;2022-08-24T08:19:39;17.60;78.40
41720;DHT22;27405;53.316;-6.294;2022-08-24T08:22:08;17.60;78.00
41720;DHT22;27405;53.316;-6.294;2022-08-24T08:24:52;17.60;78.00
41720;DHT22;27405;53.316;-6.294;2022-08-24T08:27:19;17.70;78.00
41720;DHT22;27405;53.316;-6.294;2022-08-24T08:29:46;17.80;78.00
41720;DHT22;27405;53.316;-6.294;2022-08-24T08:32:13;17.80;77.50
41720;DHT22;27405;53.316;-6.294;2022-08-24T08:34:43;17.80;77.10
41720;DHT22;27405;53.316;-6.294;2022-08-24T08:37:10;17.80;76.70
41720;DHT22;27405;53.316;-6.294;2022-08-24T08:39:36;17.80;76.40
41720;DHT22;27405;53.316;-6.294;2022-08-24T08:56:14;18.10;76.00
41720;DHT22;27405;53.316;-6.294;2022-08-24T08:59:30;18.10;75.80
41720;DHT22;27405;53.316;-6.294;2022-08-24T09:07:01;18.30;74.80
41720;DHT22;27405;53.316;-6.294;2022-08-24T09:12:33;18.40;74.50
41720;DHT22;27405;53.316;-6.294;2022-08-24T09:18:15;18.40;73.80
41720;DHT22;27405;53.316;-6.294;2022-08-24T09:26:30;18.60;73.40
41720;DHT22;27405;53.316;-6.294;2022-08-24T09:29:17;18.60;73.10
41720;DHT22;27405;53.316;-6.294;2022-08-24T09:32:13;18.70;72.90
41720;DHT22;27405;53.316;-6.294;2022-08-24T09:35:03;18.80;72.70
41720;DHT22;27405;53.316;-6.294;2022-08-24T09:49:03;19.00;71.60
41720;DHT22;27405;53.316;-6.294;2022-08-24T09:51:44;19.10;71.60
41720;DHT22;27405;53.316;-6.294;2022-08-24T09:54:50;19.20;71.30
41720;DHT22;27405;53.316;-6.294;2022-08-24T09:57:56;19.30;70.90
41720;DHT22;27405;53.316;-6.294;2022-08-24T10:04:05;19.50;69.50
41720;DHT22;27405;53.316;-6.294;2022-08-24T10:06:26;19.40;69.20
41720;DHT22;27405;53.316;-6.294;2022-08-24T10:09:10;19.30;69.80
41720;DHT22;27405;53.316;-6.294;2022-08-24T10:20:45;19.50;69.60
41720;DHT22;27405;53.316;-6.294;2022-08-24T10:23:36;19.60;69.10
41720;DHT22;27405;53.316;-6.294;2022-08-24T10:31:18;19.60;68.00
41720;DHT22;27405;53.316;-6.294;2022-08-24T10:39:16;19.60;66.80
41720;DHT22;27405;53.316;-6.294;2022-08-24T10:53:51;20.10;65.60
41720;DHT22;27405;53.316;-6.294;2022-08-24T11:04:29;20.20;65.00
41720;DHT22;27405;53.316;-6.294;2022-08-24T11:12:31;20.20;64.80
41720;DHT22;27405;53.316;-6.294;2022-08-24T11:15:02;20.10;65.00
41720;DHT22;27405;53.316;-6.294;2022-08-24T11:17:30;20.10;64.90
41720;DHT22;27405;53.316;-6.294;2022-08-24T11:19:57;20.10;64.70
41720;DHT22;27405;53.316;-6.294;2022-08-24T11:22:36;20.00;64.80
41720;DHT22;27405;53.316;-6.294;2022-08-24T11:25:19;20.10;64.70
41720;DHT22;27405;53.316;-6.294;2022-08-24T11:27:51;20.10;64.20
41720;DHT22;27405;53.316;-6.294;2022-08-24T11:30:27;20.10;64.10
41720;DHT22;27405;53.316;-6.294;2022-08-24T11:33:04;20.20;64.10
41720;DHT22;27405;53.316;-6.294;2022-08-24T11:38:07;20.40;63.30
41720;DHT22;27405;53.316;-6.294;2022-08-24T11:40:40;20.50;63.50
41720;DHT22;27405;53.316;-6.294;2022-08-24T11:48:49;20.80;62.20
41720;DHT22;27405;53.316;-6.294;2022-08-24T11:51:39;20.90;61.80
41720;DHT22;27405;53.316;-6.294;2022-08-24T11:54:24;20.90;61.60
41720;DHT22;27405;53.316;-6.294;2022-08-24T11:57:16;20.90;61.60
41720;DHT22;27405;53.316;-6.294;2022-08-24T12:00:10;21.00;61.00
41720;DHT22;27405;53.316;-6.294;2022-08-24T12:03:43;21.00;60.40
41720;DHT22;27405;53.316;-6.294;2022-08-24T12:18:55;21.00;59.90
41720;DHT22;27405;53.316;-6.294;2022-08-24T12:21:25;21.10;59.70
41720;DHT22;27405;53.316;-6.294;2022-08-24T12:24:01;21.00;59.70
41720;DHT22;27405;53.316;-6.294;2022-08-24T12:26:48;21.10;59.70
41720;DHT22;27405;53.316;-6.294;2022-08-24T12:29:43;21.10;59.50
41720;DHT22;27405;53.316;-6.294;2022-08-24T12:32:11;21.10;59.90
41720;DHT22;27405;53.316;-6.294;2022-08-24T12:34:58;21.10;59.40
41720;DHT22;27405;53.316;-6.294;2022-08-24T12:37:48;21.10;58.90
41720;DHT22;27405;53.316;-6.294;2022-08-24T12:40:47;21.10;58.80
41720;DHT22;27405;53.316;-6.294;2022-08-24T12:45:54;21.00;57.70
41720;DHT22;27405;53.316;-6.294;2022-08-24T12:48:22;20.90;57.80
41720;DHT22;27405;53.316;-6.294;2022-08-24T12:54:09;20.90;58.80
41720;DHT22;27405;53.316;-6.294;2022-08-24T12:57:02;21.20;58.80
41720;DHT22;27405;53.316;-6.294;2022-08-24T12:59:35;21.30;58.50
41720;DHT22;27405;53.316;-6.294;2022-08-24T13:02:06;21.30;58.40
41720;DHT22;27405;53.316;-6.294;2022-08-24T13:04:37;21.40;57.80
41720;DHT22;27405;53.316;-6.294;2022-08-24T13:07:08;21.30;57.60
41720;DHT22;27405;53.316;-6.294;2022-08-24T13:09:40;21.30;57.50
41720;DHT22;27405;53.316;-6.294;2022-08-24T13:28:37;21.50;56.30
41720;DHT22;27405;53.316;-6.294;2022-08-24T13:31:24;21.70;56.50
41720;DHT22;27405;53.316;-6.294;2022-08-24T13:48:09;22.40;54.00
41720;DHT22;27405;53.316;-6.294;2022-08-24T13:51:04;22.40;54.10
41720;DHT22;27405;53.316;-6.294;2022-08-24T13:53:44;22.50;53.10
41720;DHT22;27405;53.316;-6.294;2022-08-24T13:56:29;22.60;53.00
41720;DHT22;27405;53.316;-6.294;2022-08-24T13:59:08;22.70;53.10
41720;DHT22;27405;53.316;-6.294;2022-08-24T14:01:39;22.70;53.10
41720;DHT22;27405;53.316;-6.294;2022-08-24T14:10:10;22.60;53.00
41720;DHT22;27405;53.316;-6.294;2022-08-24T14:12:52;22.50;52.90
41720;DHT22;27405;53.316;-6.294;2022-08-24T14:15:55;22.40;52.50
41720;DHT22;27405;53.316;-6.294;2022-08-24T14:19:08;22.20;52.80
41720;DHT22;27405;53.316;-6.294;2022-08-24T14:21:45;22.00;53.20
41720;DHT22;27405;53.316;-6.294;2022-08-24T14:27:08;21.90;52.60
41720;DHT22;27405;53.316;-6.294;2022-08-24T14:29:37;21.80;52.40
41720;DHT22;27405;53.316;-6.294;2022-08-24T14:43:43;21.80;52.20
41720;DHT22;27405;53.316;-6.294;2022-08-24T14:46:38;21.80;52.30
41720;DHT22;27405;53.316;-6.294;2022-08-24T14:49:19;21.70;52.50
41720;DHT22;27405;53.316;-6.294;2022-08-24T14:55:01;21.70;52.50
41720;DHT22;27405;53.316;-6.294;2022-08-24T14:57:46;21.70;52.50
41720;DHT22;27405;53.316;-6.294;2022-08-24T15:08:38;21.60;52.60
41720;DHT22;27405;53.316;-6.294;2022-08-24T15:11:15;21.50;52.70
41720;DHT22;27405;53.316;-6.294;2022-08-24T15:13:54;21.50;52.70
41720;DHT22;27405;53.316;-6.294;2022-08-24T15:17:00;21.40;52.80
41720;DHT22;27405;53.316;-6.294;2022-08-24T15:25:34;21.40;53.20
41720;DHT22;27405;53.316;-6.294;2022-08-24T15:28:25;21.40;53.40
41720;DHT22;27405;53.316;-6.294;2022-08-24T15:30:58;21.40;53.40
41720;DHT22;27405;53.316;-6.294;2022-08-24T15:33:25;21.40;53.20
41720;DHT22;27405;53.316;-6.294;2022-08-24T15:36:16;21.50;53.00
41720;DHT22;27405;53.316;-6.294;2022-08-24T15:38:42;21.50;53.10
41720;DHT22;27405;53.316;-6.294;2022-08-24T15:44:04;21.90;52.50
41720;DHT22;27405;53.316;-6.294;2022-08-24T15:46:41;22.00;51.70
41720;DHT22;27405;53.316;-6.294;2022-08-24T15:49:24;22.20;51.40
41720;DHT22;27405;53.316;-6.294;2022-08-24T15:51:57;22.30;51.20
41720;DHT22;27405;53.316;-6.294;2022-08-24T15:59:45;22.70;50.50
41720;DHT22;27405;53.316;-6.294;2022-08-24T16:07:31;23.30;50.10
41720;DHT22;27405;53.316;-6.294;2022-08-24T16:10:11;23.50;50.50
41720;DHT22;27405;53.316;-6.294;2022-08-24T16:16:08;23.40;49.50
41720;DHT22;27405;53.316;-6.294;2022-08-24T16:18:48;23.30;49.50
41720;DHT22;27405;53.316;-6.294;2022-08-24T16:21:35;23.50;49.10
41720;DHT22;27405;53.316;-6.294;2022-08-24T16:24:12;23.70;49.10
41720;DHT22;27405;53.316;-6.294;2022-08-24T16:35:16;23.20;48.50
41720;DHT22;27405;53.316;-6.294;2022-08-24T16:37:42;23.10;48.50
41720;DHT22;27405;53.316;-6.294;2022-08-24T16:40:09;22.90;48.70
41720;DHT22;27405;53.316;-6.294;2022-08-24T16:42:35;22.70;48.80
41720;DHT22;27405;53.316;-6.294;2022-08-24T16:45:04;22.60;49.20
41720;DHT22;27405;53.316;-6.294;2022-08-24T16:47:31;22.50;49.70
41720;DHT22;27405;53.316;-6.294;2022-08-24T16:49:57;22.50;49.30
41720;DHT22;27405;53.316;-6.294;2022-08-24T16:52:23;22.50;49.20
41720;DHT22;27405;53.316;-6.294;2022-08-24T16:54:49;22.60;49.10
41720;DHT22;27405;53.316;-6.294;2022-08-24T16:57:22;22.70;48.50
41720;DHT22;27405;53.316;-6.294;2022-08-24T16:59:51;22.70;47.90
41720;DHT22;27405;53.316;-6.294;2022-08-24T17:02:18;22.70;47.70
41720;DHT22;27405;53.316;-6.294;2022-08-24T17:04:45;22.50;47.30
41720;DHT22;27405;53.316;-6.294;2022-08-24T17:07:15;22.40;48.20
41720;DHT22;27405;53.316;-6.294;2022-08-24T17:09:44;22.40;47.80
41720;DHT22;27405;53.316;-6.294;2022-08-24T17:15:32;22.30;47.90
41720;DHT22;27405;53.316;-6.294;2022-08-24T17:18:03;22.20;47.70
41720;DHT22;27405;53.316;-6.294;2022-08-24T17:20:30;22.20;47.40
41720;DHT22;27405;53.316;-6.294;2022-08-24T17:22:57;22.20;47.40
41720;DHT22;27405;53.316;-6.294;2022-08-24T17:25:25;22.10;47.70
41720;DHT22;27405;53.316;-6.294;2022-08-24T17:27:52;22.10;47.90
41720;DHT22;27405;53.316;-6.294;2022-08-24T17:30:20;22.00;47.90
41720;DHT22;27405;53.316;-6.294;2022-08-24T17:32:52;21.90;48.10
41720;DHT22;27405;53.316;-6.294;2022-08-24T17:35:19;21.90;48.40
41720;DHT22;27405;53.316;-6.294;2022-08-24T17:37:46;21.80;48.70
41720;DHT22;27405;53.316;-6.294;2022-08-24T17:40:16;21.80;48.80
41720;DHT22;27405;53.316;-6.294;2022-08-24T17:42:43;21.90;48.70
41720;DHT22;27405;53.316;-6.294;2022-08-24T17:45:09;21.70;48.50
41720;DHT22;27405;53.316;-6.294;2022-08-24T17:47:35;21.60;48.90
41720;DHT22;27405;53.316;-6.294;2022-08-24T17:50:02;21.60;49.10
41720;DHT22;27405;53.316;-6.294;2022-08-24T17:52:28;21.50;49.20
41720;DHT22;27405;53.316;-6.294;2022-08-24T17:54:54;21.40;49.30
41720;DHT22;27405;53.316;-6.294;2022-08-24T17:57:24;21.30;49.50
41720;DHT22;27405;53.316;-6.294;2022-08-24T17:59:51;21.20;49.80
41720;DHT22;27405;53.316;-6.294;2022-08-24T18:02:17;21.20;50.30
41720;DHT22;27405;53.316;-6.294;2022-08-24T18:04:43;21.20;50.50
41720;DHT22;27405;53.316;-6.294;2022-08-24T18:07:17;21.20;50.50
41720;DHT22;27405;53.316;-6.294;2022-08-24T18:09:50;21.20;50.40
41720;DHT22;27405;53.316;-6.294;2022-08-24T18:15:38;21.10;51.00
41720;DHT22;27405;53.316;-6.294;2022-08-24T18:18:07;21.00;51.10
41720;DHT22;27405;53.316;-6.294;2022-08-24T18:20:34;21.00;51.30
41720;DHT22;27405;53.316;-6.294;2022-08-24T18:23:01;21.00;51.60
41720;DHT22;27405;53.316;-6.294;2022-08-24T18:25:27;21.00;51.50
41720;DHT22;27405;53.316;-6.294;2022-08-24T18:27:55;20.90;51.80
41720;DHT22;27405;53.316;-6.294;2022-08-24T18:30:28;20.90;52.00
41720;DHT22;27405;53.316;-6.294;2022-08-24T18:32:54;20.90;51.90
41720;DHT22;27405;53.316;-6.294;2022-08-24T18:35:21;20.80;52.00
41720;DHT22;27405;53.316;-6.294;2022-08-24T18:37:47;20.70;52.30
41720;DHT22;27405;53.316;-6.294;2022-08-24T18:40:15;20.60;52.50
41720;DHT22;27405;53.316;-6.294;2022-08-24T18:42:41;20.60;52.80
41720;DHT22;27405;53.316;-6.294;2022-08-24T18:45:09;20.50;53.10
41720;DHT22;27405;53.316;-6.294;2022-08-24T18:47:37;20.50;53.40
41720;DHT22;27405;53.316;-6.294;2022-08-24T18:50:04;20.40;53.60
41720;DHT22;27405;53.316;-6.294;2022-08-24T18:52:31;20.30;53.80
41720;DHT22;27405;53.316;-6.294;2022-08-24T18:54:57;20.20;54.00
41720;DHT22;27405;53.316;-6.294;2022-08-24T18:57:23;20.20;54.30
41720;DHT22;27405;53.316;-6.294;2022-08-24T18:59:49;20.20;54.40
41720;DHT22;27405;53.316;-6.294;2022-08-24T19:02:18;20.20;54.60
41720;DHT22;27405;53.316;-6.294;2022-08-24T19:07:34;20.10;54.90
41720;DHT22;27405;53.316;-6.294;2022-08-24T19:10:03;20.10;55.10
41720;DHT22;27405;53.316;-6.294;2022-08-24T19:12:32;20.00;55.30
41720;DHT22;27405;53.316;-6.294;2022-08-24T19:15:00;20.00;55.40
41720;DHT22;27405;53.316;-6.294;2022-08-24T19:17:27;19.90;55.50
41720;DHT22;27405;53.316;-6.294;2022-08-24T19:19:53;19.90;55.60
41720;DHT22;27405;53.316;-6.294;2022-08-24T19:22:19;19.80;55.60
41720;DHT22;27405;53.316;-6.294;2022-08-24T19:24:46;19.70;55.70
41720;DHT22;27405;53.316;-6.294;2022-08-24T19:27:12;19.70;56.00
41720;DHT22;27405;53.316;-6.294;2022-08-24T19:29:38;19.70;56.10
41720;DHT22;27405;53.316;-6.294;2022-08-24T19:32:06;19.60;56.30
41720;DHT22;27405;53.316;-6.294;2022-08-24T19:34:33;19.60;56.50